Terminal Aerodrome Forecast
Issued by NWS

Home | Current Version | Previous Version | Text Only | Print | Product List | Glossary On
Versions: 1 2 3 4 5 6 7 8 9 10 11 12 13 14
000
FTAK31 PAJN 220500
TAFAGY
TAF
PAGY 220537Z 2206/2306 04005KT 5SM BR VCSH OVC015
      TEMPO 2206/2210 3SM -SHRASN BR BKN005 OVC010
     FM221200 VRB05KT 5SM -SHRASN BR OVC015
     FM221600 20010KT P6SM VCSH OVC025
     FM230200 20012KT P6SM VCSH BKN040
      AMD LTD TO CLD VIS AND WIND=

USA.gov is the U.S. government's official web portal to all federal, state and local government web resources and services.